map of KSRB home
KSRB - Airport
Location
City:  Sparta, Tennessee, United States
Name:Upper Cumberland Regional
ICAO:KSRB
FAA LID:SRB

Details
Type:Airport (Airfield)
Use:Public/Civil
Latitude:3603'24"N (36.056739)
Longitude:8531'48"W (-85.530107)
Datum:WGS 1984
Elevation:1024 ft (312 m)
Variation:4.66W (WMM2015 magnetic declination)
-0.08 annual change
Runways:1
Longest:6704 × 100 ft (2043 × 30.5 m), paved

Weather
METAR:KSRB 150615Z AUTO 00000KT 10SM OVC032 M04/M05 A3004 RMK A01

Related Locations
Nearby:
Farthest:MQZ: 11266 mi / 18131 km
Margaret River [Margaret River Airport], WA, AU

Find:

   beyond  
but within

Other Information
Maps:
NOTAMs:
Links:
Sources:

  
flag of United States
flag of Tennessee
  

Sectional Chart

Flight Planning
at skyvector.com

Satellite Image

Google Maps Satellite view

 

Copyright © 2004-2017 Karl L. Swartz. All rights reserved.
The Great Circle Mapper name and logo are trademarks of the Great Circle Mapper.
All other trademarks mentioned herein belong to their respective owners.
Please see credits for attibutions and further copyright information.

  Follow gcmap on Facebook Follow gcmap on Twitter Follow gcmap on Google+ GCmap on LinkedIn

hCard Microformat

Geo Microformat